sensor_id;sensor_type;location;lat;lon;timestamp;pressure;altitude;pressure_sealevel;temperature;humidity
75219;BME280;63801;49.414;19.474;2024-01-30T00:00:31;95637.72;;;-4.92;76.61
75219;BME280;63801;49.414;19.474;2024-01-30T00:02:32;95636.50;;;-4.96;76.40
75219;BME280;63801;49.414;19.474;2024-01-30T00:04:32;95641.16;;;-4.99;76.34
75219;BME280;63801;49.414;19.474;2024-01-30T00:06:33;95629.22;;;-5.08;76.33
75219;BME280;63801;49.414;19.474;2024-01-30T00:08:33;95641.97;;;-5.05;76.32
75219;BME280;63801;49.414;19.474;2024-01-30T00:10:33;95638.75;;;-5.07;76.42
75219;BME280;63801;49.414;19.474;2024-01-30T00:12:34;95640.75;;;-5.09;76.52
75219;BME280;63801;49.414;19.474;2024-01-30T00:14:34;95632.88;;;-5.09;76.73
75219;BME280;63801;49.414;19.474;2024-01-30T00:16:34;95637.13;;;-5.08;76.57
75219;BME280;63801;49.414;19.474;2024-01-30T00:18:35;95637.13;;;-5.08;76.59
75219;BME280;63801;49.414;19.474;2024-01-30T00:20:36;95636.09;;;-5.07;76.63
75219;BME280;63801;49.414;19.474;2024-01-30T00:22:36;95633.47;;;-5.07;76.44
75219;BME280;63801;49.414;19.474;2024-01-30T00:24:36;95632.47;;;-5.06;76.48
75219;BME280;63801;49.414;19.474;2024-01-30T00:26:36;95611.66;;;-5.14;76.60
75219;BME280;63801;49.414;19.474;2024-01-30T00:28:38;95626.22;;;-5.05;76.61
75219;BME280;63801;49.414;19.474;2024-01-30T00:30:38;95631.47;;;-5.05;76.74
75219;BME280;63801;49.414;19.474;2024-01-30T00:32:38;95626.22;;;-5.05;76.75
75219;BME280;63801;49.414;19.474;2024-01-30T00:34:39;95624.97;;;-5.09;77.00
75219;BME280;63801;49.414;19.474;2024-01-30T00:36:39;95628.63;;;-5.03;76.80
75219;BME280;63801;49.414;19.474;2024-01-30T00:38:39;95637.50;;;-5.04;76.86
75219;BME280;63801;49.414;19.474;2024-01-30T00:40:41;95630.66;;;-5.05;76.75
75219;BME280;63801;49.414;19.474;2024-01-30T00:42:42;95633.47;;;-5.07;76.84
75219;BME280;63801;49.414;19.474;2024-01-30T00:44:42;95631.84;;;-5.08;76.89
75219;BME280;63801;49.414;19.474;2024-01-30T00:46:43;95618.50;;;-5.13;76.60
75219;BME280;63801;49.414;19.474;2024-01-30T00:48:43;95617.72;;;-5.07;76.70
75219;BME280;63801;49.414;19.474;2024-01-30T00:50:44;95619.34;;;-5.06;77.11
75219;BME280;63801;49.414;19.474;2024-01-30T00:52:44;95615.69;;;-5.05;77.33
75219;BME280;63801;49.414;19.474;2024-01-30T00:54:45;95616.47;;;-4.97;77.54
75219;BME280;63801;49.414;19.474;2024-01-30T00:56:45;95612.41;;;-4.93;77.41
75219;BME280;63801;49.414;19.474;2024-01-30T00:58:46;95612.00;;;-4.90;77.41
75219;BME280;63801;49.414;19.474;2024-01-30T01:00:46;95604.72;;;-4.88;77.00
75219;BME280;63801;49.414;19.474;2024-01-30T01:02:46;95596.63;;;-4.93;77.29
75219;BME280;63801;49.414;19.474;2024-01-30T01:04:47;95608.75;;;-4.86;77.11
75219;BME280;63801;49.414;19.474;2024-01-30T01:06:47;95605.91;;;-4.84;77.16
75219;BME280;63801;49.414;19.474;2024-01-30T01:08:47;95598.25;;;-4.92;77.02
75219;BME280;63801;49.414;19.474;2024-01-30T01:10:48;95597.84;;;-4.89;76.86
75219;BME280;63801;49.414;19.474;2024-01-30T01:12:48;95591.81;;;-4.96;76.68
75219;BME280;63801;49.414;19.474;2024-01-30T01:14:48;95596.25;;;-4.97;76.60
75219;BME280;63801;49.414;19.474;2024-01-30T01:16:49;95582.31;;;-5.04;76.73
75219;BME280;63801;49.414;19.474;2024-01-30T01:18:49;95586.34;;;-5.02;76.81
75219;BME280;63801;49.414;19.474;2024-01-30T01:20:49;95591.81;;;-5.03;76.98
75219;BME280;63801;49.414;19.474;2024-01-30T01:22:50;95591.00;;;-5.04;76.97
75219;BME280;63801;49.414;19.474;2024-01-30T01:24:50;95586.16;;;-5.07;76.95
75219;BME280;63801;49.414;19.474;2024-01-30T01:26:50;95591.84;;;-5.10;76.92
75219;BME280;63801;49.414;19.474;2024-01-30T01:28:51;95580.72;;;-5.12;76.88
75219;BME280;63801;49.414;19.474;2024-01-30T01:30:51;95577.50;;;-5.14;76.89
75219;BME280;63801;49.414;19.474;2024-01-30T01:32:51;95580.31;;;-5.15;76.98
75219;BME280;63801;49.414;19.474;2024-01-30T01:35:01;95578.94;;;-5.18;76.76
75219;BME280;63801;49.414;19.474;2024-01-30T01:37:01;95584.19;;;-5.18;77.24
75219;BME280;63801;49.414;19.474;2024-01-30T01:39:01;95570.41;;;-5.20;77.11
75219;BME280;63801;49.414;19.474;2024-01-30T01:41:03;95583.34;;;-5.12;77.12
75219;BME280;63801;49.414;19.474;2024-01-30T01:43:03;95579.50;;;-5.09;77.20
75219;BME280;63801;49.414;19.474;2024-01-30T01:45:05;95583.72;;;-5.08;77.54
75219;BME280;63801;49.414;19.474;2024-01-30T01:47:05;95576.66;;;-5.08;77.28
75219;BME280;63801;49.414;19.474;2024-01-30T01:49:06;95580.09;;;-5.07;77.17
75219;BME280;63801;49.414;19.474;2024-01-30T01:51:08;95572.00;;;-5.12;76.86
75219;BME280;63801;49.414;19.474;2024-01-30T01:53:09;95580.13;;;-5.14;76.91
75219;BME280;63801;49.414;19.474;2024-01-30T01:55:11;95581.31;;;-5.16;77.14
75219;BME280;63801;49.414;19.474;2024-01-30T01:57:12;95585.19;;;-5.19;77.19
75219;BME280;63801;49.414;19.474;2024-01-30T01:59:13;95586.81;;;-5.18;77.07
75219;BME280;63801;49.414;19.474;2024-01-30T02:01:13;95563.56;;;-5.27;77.05
75219;BME280;63801;49.414;19.474;2024-01-30T02:03:17;95588.00;;;-5.20;77.35
75219;BME280;63801;49.414;19.474;2024-01-30T02:05:18;95583.75;;;-5.21;76.95
75219;BME280;63801;49.414;19.474;2024-01-30T02:07:18;95575.47;;;-5.25;77.06
75219;BME280;63801;49.414;19.474;2024-01-30T02:09:19;95576.72;;;-5.27;77.10
75219;BME280;63801;49.414;19.474;2024-01-30T02:11:20;95580.75;;;-5.31;77.11
75219;BME280;63801;49.414;19.474;2024-01-30T02:13:21;95574.28;;;-5.35;77.40
75219;BME280;63801;49.414;19.474;2024-01-30T02:15:21;95570.66;;;-5.41;76.71
75219;BME280;63801;49.414;19.474;2024-01-30T02:17:21;95576.13;;;-5.43;77.06
75219;BME280;63801;49.414;19.474;2024-01-30T02:19:23;95569.66;;;-5.53;77.15
75219;BME280;63801;49.414;19.474;2024-01-30T02:21:24;95566.84;;;-5.52;76.95
75219;BME280;63801;49.414;19.474;2024-01-30T02:23:25;95569.06;;;-5.55;77.08
75219;BME280;63801;49.414;19.474;2024-01-30T02:25:39;95571.31;;;-5.59;77.38
75219;BME280;63801;49.414;19.474;2024-01-30T02:27:44;95575.72;;;-5.53;77.21
75219;BME280;63801;49.414;19.474;2024-01-30T02:29:44;95579.78;;;-5.57;77.22
75219;BME280;63801;49.414;19.474;2024-01-30T02:31:45;95582.63;;;-5.58;77.30
75219;BME280;63801;49.414;19.474;2024-01-30T02:33:46;95585.25;;;-5.58;77.44
75219;BME280;63801;49.414;19.474;2024-01-30T02:35:46;95580.00;;;-5.58;77.54
75219;BME280;63801;49.414;19.474;2024-01-30T02:37:46;95575.31;;;-5.56;77.70
75219;BME280;63801;49.414;19.474;2024-01-30T02:39:47;95579.56;;;-5.55;77.65
75219;BME280;63801;49.414;19.474;2024-01-30T02:41:47;95585.41;;;-5.53;77.86
75219;BME280;63801;49.414;19.474;2024-01-30T02:43:47;95571.69;;;-5.55;77.72
75219;BME280;63801;49.414;19.474;2024-01-30T02:45:48;95568.44;;;-5.57;77.70
75219;BME280;63801;49.414;19.474;2024-01-30T02:47:48;95573.91;;;-5.52;77.40
75219;BME280;63801;49.414;19.474;2024-01-30T02:49:48;95567.03;;;-5.53;77.62
75219;BME280;63801;49.414;19.474;2024-01-30T02:51:49;95566.03;;;-5.52;77.71
75219;BME280;63801;49.414;19.474;2024-01-30T02:53:49;95562.00;;;-5.55;77.59
75219;BME280;63801;49.414;19.474;2024-01-30T02:55:50;95560.56;;;-5.51;77.40
75219;BME280;63801;49.414;19.474;2024-01-30T02:57:50;95555.31;;;-5.51;77.79
75219;BME280;63801;49.414;19.474;2024-01-30T02:59:50;95562.19;;;-5.50;77.54
75219;BME280;63801;49.414;19.474;2024-01-30T03:01:51;95557.13;;;-5.51;77.69
75219;BME280;63801;49.414;19.474;2024-01-30T03:03:51;95561.97;;;-5.48;77.60
75219;BME280;63801;49.414;19.474;2024-01-30T03:05:51;95568.84;;;-5.47;77.82
75219;BME280;63801;49.414;19.474;2024-01-30T03:07:51;95563.59;;;-5.47;77.44
75219;BME280;63801;49.414;19.474;2024-01-30T03:09:52;95550.47;;;-5.54;77.92
75219;BME280;63801;49.414;19.474;2024-01-30T03:11:52;95564.41;;;-5.47;77.79
75219;BME280;63801;49.414;19.474;2024-01-30T03:13:52;95568.25;;;-5.49;78.26
75219;BME280;63801;49.414;19.474;2024-01-30T03:15:53;95564.22;;;-5.52;78.13
75219;BME280;63801;49.414;19.474;2024-01-30T03:17:53;95566.44;;;-5.55;77.90
75219;BME280;63801;49.414;19.474;2024-01-30T03:19:54;95567.06;;;-5.60;77.76
75219;BME280;63801;49.414;19.474;2024-01-30T03:21:54;95556.94;;;-5.69;77.89
75219;BME280;63801;49.414;19.474;2024-01-30T03:23:54;95554.13;;;-5.68;77.79
75219;BME280;63801;49.414;19.474;2024-01-30T03:25:55;95558.75;;;-5.70;78.30
75219;BME280;63801;49.414;19.474;2024-01-30T03:27:55;95552.69;;;-5.70;78.35
75219;BME280;63801;49.414;19.474;2024-01-30T03:29:55;95564.25;;;-5.71;78.64
75219;BME280;63801;49.414;19.474;2024-01-30T03:31:56;95543.41;;;-5.79;79.01
75219;BME280;63801;49.414;19.474;2024-01-30T03:33:56;95553.13;;;-5.73;79.08
75219;BME280;63801;49.414;19.474;2024-01-30T03:35:56;95548.06;;;-5.68;78.93
75219;BME280;63801;49.414;19.474;2024-01-30T03:37:57;95543.22;;;-5.71;79.37
75219;BME280;63801;49.414;19.474;2024-01-30T03:39:57;95527.66;;;-5.66;79.37
75219;BME280;63801;49.414;19.474;2024-01-30T03:41:57;95553.13;;;-5.54;79.33
75219;BME280;63801;49.414;19.474;2024-01-30T03:43:58;95545.41;;;-5.49;79.50
75219;BME280;63801;49.414;19.474;2024-01-30T03:45:59;95551.88;;;-5.45;79.30
75219;BME280;63801;49.414;19.474;2024-01-30T03:47:59;95553.28;;;-5.42;79.46
75219;BME280;63801;49.414;19.474;2024-01-30T03:50:00;95528.25;;;-5.51;79.25
75219;BME280;63801;49.414;19.474;2024-01-30T03:52:00;95548.66;;;-5.40;79.32
75219;BME280;63801;49.414;19.474;2024-01-30T03:54:00;95544.16;;;-5.39;79.33
75219;BME280;63801;49.414;19.474;2024-01-30T03:56:00;95548.22;;;-5.37;79.50
75219;BME280;63801;49.414;19.474;2024-01-30T03:58:01;95532.06;;;-5.47;79.93
75219;BME280;63801;49.414;19.474;2024-01-30T04:00:01;95547.38;;;-5.31;80.24
75219;BME280;63801;49.414;19.474;2024-01-30T04:02:03;95548.63;;;-5.33;80.12
75219;BME280;63801;49.414;19.474;2024-01-30T04:04:04;95554.25;;;-5.30;79.83
75219;BME280;63801;49.414;19.474;2024-01-30T04:06:04;95548.19;;;-5.30;79.48
75219;BME280;63801;49.414;19.474;2024-01-30T04:08:05;95534.47;;;-5.39;79.34
75219;BME280;63801;49.414;19.474;2024-01-30T04:10:06;95550.00;;;-5.31;79.49
75219;BME280;63801;49.414;19.474;2024-01-30T04:12:06;95546.19;;;-5.28;79.75
75219;BME280;63801;49.414;19.474;2024-01-30T04:14:07;95553.88;;;-5.27;79.96
75219;BME280;63801;49.414;19.474;2024-01-30T04:16:08;95550.81;;;-5.24;80.28
75219;BME280;63801;49.414;19.474;2024-01-30T04:18:08;95548.63;;;-5.27;80.61
75219;BME280;63801;49.414;19.474;2024-01-30T04:20:15;95552.22;;;-5.21;80.46
75219;BME280;63801;49.414;19.474;2024-01-30T04:22:16;95528.00;;;-5.30;79.93
75219;BME280;63801;49.414;19.474;2024-01-30T04:24:16;95558.69;;;-5.17;79.85
75219;BME280;63801;49.414;19.474;2024-01-30T04:26:18;95550.78;;;-5.17;80.23
75219;BME280;63801;49.414;19.474;2024-01-30T04:28:19;95554.47;;;-5.18;79.84
75219;BME280;63801;49.414;19.474;2024-01-30T04:30:19;95549.81;;;-5.23;79.71
75219;BME280;63801;49.414;19.474;2024-01-30T04:32:19;95527.63;;;-5.40;79.53
75219;BME280;63801;49.414;19.474;2024-01-30T04:34:20;95559.91;;;-5.26;79.45
75219;BME280;63801;49.414;19.474;2024-01-30T04:36:20;95548.00;;;-5.35;79.59
75219;BME280;63801;49.414;19.474;2024-01-30T04:38:20;95554.06;;;-5.35;79.48
75219;BME280;63801;49.414;19.474;2024-01-30T04:40:21;95558.72;;;-5.44;79.63
75219;BME280;63801;49.414;19.474;2024-01-30T04:42:21;95548.84;;;-5.48;79.25
75219;BME280;63801;49.414;19.474;2024-01-30T04:44:22;95545.41;;;-5.62;79.41
75219;BME280;63801;49.414;19.474;2024-01-30T04:46:22;95554.31;;;-5.56;79.52
75219;BME280;63801;49.414;19.474;2024-01-30T04:48:22;95556.75;;;-5.61;79.70
75219;BME280;63801;49.414;19.474;2024-01-30T04:50:23;95561.59;;;-5.58;79.62
75219;BME280;63801;49.414;19.474;2024-01-30T04:52:26;95560.56;;;-5.57;79.84
75219;BME280;63801;49.414;19.474;2024-01-30T04:54:26;95559.16;;;-5.53;80.36
75219;BME280;63801;49.414;19.474;2024-01-30T04:56:27;95564.59;;;-5.48;80.50
75219;BME280;63801;49.414;19.474;2024-01-30T04:58:27;95570.06;;;-5.43;80.90
75219;BME280;63801;49.414;19.474;2024-01-30T05:00:27;95556.69;;;-5.35;80.76
75219;BME280;63801;49.414;19.474;2024-01-30T05:02:28;95559.13;;;-5.27;80.94
75219;BME280;63801;49.414;19.474;2024-01-30T05:04:28;95566.16;;;-5.21;81.27
75219;BME280;63801;49.414;19.474;2024-01-30T05:06:29;95560.69;;;-5.06;81.29
75219;BME280;63801;49.414;19.474;2024-01-30T05:08:29;95546.06;;;-4.95;81.94
75219;BME280;63801;49.414;19.474;2024-01-30T05:10:30;95562.34;;;-4.67;83.02
75219;BME280;63801;49.414;19.474;2024-01-30T05:12:30;95562.84;;;-4.45;82.42
75219;BME280;63801;49.414;19.474;2024-01-30T05:14:30;95551.06;;;-4.36;82.38
75219;BME280;63801;49.414;19.474;2024-01-30T05:16:31;95561.50;;;-4.17;82.17
75219;BME280;63801;49.414;19.474;2024-01-30T05:18:32;95551.13;;;-4.12;81.84
75219;BME280;63801;49.414;19.474;2024-01-30T05:20:32;95553.06;;;-4.00;81.82
75219;BME280;63801;49.414;19.474;2024-01-30T05:22:32;95557.63;;;-3.89;81.99
75219;BME280;63801;49.414;19.474;2024-01-30T05:24:33;95558.78;;;-3.79;82.50
75219;BME280;63801;49.414;19.474;2024-01-30T05:26:33;95562.72;;;-3.63;82.35
75219;BME280;63801;49.414;19.474;2024-01-30T05:28:33;95561.00;;;-3.51;82.55
75219;BME280;63801;49.414;19.474;2024-01-30T05:30:34;95571.84;;;-3.41;82.14
75219;BME280;63801;49.414;19.474;2024-01-30T05:32:34;95563.66;;;-3.33;82.18
75219;BME280;63801;49.414;19.474;2024-01-30T05:34:35;95566.22;;;-3.26;81.73
75219;BME280;63801;49.414;19.474;2024-01-30T05:36:35;95549.06;;;-3.35;81.80
75219;BME280;63801;49.414;19.474;2024-01-30T05:38:35;95567.19;;;-3.21;81.72
75219;BME280;63801;49.414;19.474;2024-01-30T05:40:36;95568.19;;;-3.22;81.57
75219;BME280;63801;49.414;19.474;2024-01-30T05:42:36;95546.06;;;-3.39;80.89
75219;BME280;63801;49.414;19.474;2024-01-30T05:44:37;95529.00;;;-3.54;80.76
75219;BME280;63801;49.414;19.474;2024-01-30T05:46:37;95561.72;;;-3.44;81.23
75219;BME280;63801;49.414;19.474;2024-01-30T05:48:37;95568.66;;;-3.49;81.03
75219;BME280;63801;49.414;19.474;2024-01-30T05:50:37;95555.34;;;-3.54;81.26
75219;BME280;63801;49.414;19.474;2024-01-30T05:52:38;95569.78;;;-3.39;81.68
75219;BME280;63801;49.414;19.474;2024-01-30T05:54:38;95570.13;;;-3.29;81.91
75219;BME280;63801;49.414;19.474;2024-01-30T05:56:38;95576.13;;;-3.22;81.69
75219;BME280;63801;49.414;19.474;2024-01-30T05:58:39;95577.53;;;-3.19;81.51
75219;BME280;63801;49.414;19.474;2024-01-30T06:00:39;95569.66;;;-3.26;81.16
75219;BME280;63801;49.414;19.474;2024-01-30T06:02:39;95574.28;;;-3.21;80.97
75219;BME280;63801;49.414;19.474;2024-01-30T06:04:40;95578.22;;;-3.30;80.58
75219;BME280;63801;49.414;19.474;2024-01-30T06:06:41;95561.78;;;-3.50;80.23
75219;BME280;63801;49.414;19.474;2024-01-30T06:08:41;95576.19;;;-3.53;80.34
75219;BME280;63801;49.414;19.474;2024-01-30T06:10:41;95551.84;;;-3.73;80.79
75219;BME280;63801;49.414;19.474;2024-01-30T06:12:42;95576.03;;;-3.58;80.64
75219;BME280;63801;49.414;19.474;2024-01-30T06:14:42;95581.31;;;-3.58;80.78
75219;BME280;63801;49.414;19.474;2024-01-30T06:16:43;95573.25;;;-3.63;81.17
75219;BME280;63801;49.414;19.474;2024-01-30T06:18:43;95569.53;;;-3.55;81.15
75219;BME280;63801;49.414;19.474;2024-01-30T06:20:43;95566.19;;;-3.44;81.62
75219;BME280;63801;49.414;19.474;2024-01-30T06:22:44;95568.97;;;-3.39;81.99
75219;BME280;63801;49.414;19.474;2024-01-30T06:24:44;95559.31;;;-3.27;81.84
75219;BME280;63801;49.414;19.474;2024-01-30T06:26:53;95566.41;;;-3.03;82.27
75219;BME280;63801;49.414;19.474;2024-01-30T06:28:53;95562.34;;;-2.87;82.14
75219;BME280;63801;49.414;19.474;2024-01-30T06:30:54;95565.28;;;-2.77;81.75
75219;BME280;63801;49.414;19.474;2024-01-30T06:32:54;95559.81;;;-2.76;81.43
75219;BME280;63801;49.414;19.474;2024-01-30T06:34:54;95557.22;;;-2.64;81.84
75219;BME280;63801;49.414;19.474;2024-01-30T06:36:55;95572.22;;;-2.28;82.42
75219;BME280;63801;49.414;19.474;2024-01-30T06:38:55;95561.19;;;-1.95;82.21
75219;BME280;63801;49.414;19.474;2024-01-30T06:40:55;95555.28;;;-1.56;81.62
75219;BME280;63801;49.414;19.474;2024-01-30T06:42:56;95549.69;;;-1.24;80.57
75219;BME280;63801;49.414;19.474;2024-01-30T06:44:56;95558.28;;;-0.94;80.37
75219;BME280;63801;49.414;19.474;2024-01-30T06:46:56;95559.59;;;-0.57;80.59
75219;BME280;63801;49.414;19.474;2024-01-30T06:48:57;95545.94;;;-0.09;80.18
75219;BME280;63801;49.414;19.474;2024-01-30T06:50:57;95562.91;;;0.35;79.13
75219;BME280;63801;49.414;19.474;2024-01-30T06:52:58;95556.38;;;0.76;78.43
75219;BME280;63801;49.414;19.474;2024-01-30T06:54:58;95548.69;;;1.13;77.02
75219;BME280;63801;49.414;19.474;2024-01-30T06:56:58;95553.88;;;1.42;76.74
75219;BME280;63801;49.414;19.474;2024-01-30T06:58:59;95556.31;;;1.70;75.54
75219;BME280;63801;49.414;19.474;2024-01-30T07:00:59;95557.72;;;1.99;74.31
75219;BME280;63801;49.414;19.474;2024-01-30T07:03:00;95559.91;;;2.29;75.06
75219;BME280;63801;49.414;19.474;2024-01-30T07:05:00;95563.00;;;2.48;74.37
75219;BME280;63801;49.414;19.474;2024-01-30T07:07:00;95557.88;;;2.73;75.20
75219;BME280;63801;49.414;19.474;2024-01-30T07:09:01;95558.91;;;3.04;74.07
75219;BME280;63801;49.414;19.474;2024-01-30T07:11:01;95568.94;;;3.34;74.00
75219;BME280;63801;49.414;19.474;2024-01-30T07:13:01;95569.56;;;3.51;72.14
75219;BME280;63801;49.414;19.474;2024-01-30T07:15:02;95570.97;;;3.69;70.28
75219;BME280;63801;49.414;19.474;2024-01-30T07:17:03;95556.91;;;3.83;70.95
75219;BME280;63801;49.414;19.474;2024-01-30T07:19:04;95568.19;;;4.00;69.79
75219;BME280;63801;49.414;19.474;2024-01-30T07:21:04;95552.72;;;4.13;69.82
75219;BME280;63801;49.414;19.474;2024-01-30T07:23:05;95561.59;;;4.33;67.84
75219;BME280;63801;49.414;19.474;2024-01-30T07:25:05;95562.41;;;4.49;66.56
75219;BME280;63801;49.414;19.474;2024-01-30T07:27:06;95554.13;;;4.61;66.53
75219;BME280;63801;49.414;19.474;2024-01-30T07:29:06;95552.56;;;4.90;67.70
75219;BME280;63801;49.414;19.474;2024-01-30T07:31:06;95553.03;;;5.22;66.64
75219;BME280;63801;49.414;19.474;2024-01-30T07:33:07;95560.97;;;5.68;67.59
75219;BME280;63801;49.414;19.474;2024-01-30T07:35:08;95551.06;;;6.32;69.04
75219;BME280;63801;49.414;19.474;2024-01-30T07:37:08;95545.53;;;6.92;68.36
75219;BME280;63801;49.414;19.474;2024-01-30T07:39:10;95543.88;;;7.53;67.63
75219;BME280;63801;49.414;19.474;2024-01-30T07:41:10;95539.03;;;8.03;66.22
75219;BME280;63801;49.414;19.474;2024-01-30T07:43:11;95535.41;;;8.36;63.27
75219;BME280;63801;49.414;19.474;2024-01-30T07:45:11;95547.28;;;8.68;61.27
75219;BME280;63801;49.414;19.474;2024-01-30T07:47:11;95540.16;;;8.77;58.58
75219;BME280;63801;49.414;19.474;2024-01-30T07:49:12;95548.72;;;8.97;58.86
75219;BME280;63801;49.414;19.474;2024-01-30T07:51:14;95547.69;;;9.26;56.37
75219;BME280;63801;49.414;19.474;2024-01-30T07:53:14;95542.03;;;9.27;58.35
75219;BME280;63801;49.414;19.474;2024-01-30T07:55:15;95549.94;;;9.37;56.43
75219;BME280;63801;49.414;19.474;2024-01-30T07:57:15;95530.91;;;9.61;58.44
75219;BME280;63801;49.414;19.474;2024-01-30T07:59:16;95549.81;;;10.16;59.32
75219;BME280;63801;49.414;19.474;2024-01-30T08:01:17;95542.56;;;10.52;56.69
75219;BME280;63801;49.414;19.474;2024-01-30T08:03:17;95554.03;;;10.80;55.64
75219;BME280;63801;49.414;19.474;2024-01-30T08:05:18;95545.25;;;10.88;53.73
75219;BME280;63801;49.414;19.474;2024-01-30T08:07:18;95546.97;;;11.06;52.80
75219;BME280;63801;49.414;19.474;2024-01-30T08:09:19;95550.25;;;11.03;48.76
75219;BME280;63801;49.414;19.474;2024-01-30T08:11:20;95537.44;;;10.87;49.84
75219;BME280;63801;49.414;19.474;2024-01-30T08:13:25;95549.84;;;10.88;47.99
75219;BME280;63801;49.414;19.474;2024-01-30T08:15:25;95546.63;;;10.86;48.54
75219;BME280;63801;49.414;19.474;2024-01-30T08:17:26;95547.22;;;10.96;48.47
75219;BME280;63801;49.414;19.474;2024-01-30T08:19:26;95542.66;;;11.05;47.91
75219;BME280;63801;49.414;19.474;2024-01-30T08:21:26;95550.03;;;11.13;45.75
75219;BME280;63801;49.414;19.474;2024-01-30T08:23:27;95538.78;;;11.20;45.68
75219;BME280;63801;49.414;19.474;2024-01-30T08:25:27;95530.50;;;11.16;46.19
75219;BME280;63801;49.414;19.474;2024-01-30T08:27:28;95542.25;;;11.43;46.41
75219;BME280;63801;49.414;19.474;2024-01-30T08:29:28;95538.19;;;11.76;46.23
75219;BME280;63801;49.414;19.474;2024-01-30T08:31:28;95540.03;;;12.06;45.42
75219;BME280;63801;49.414;19.474;2024-01-30T08:33:29;95537.25;;;12.29;46.27
75219;BME280;63801;49.414;19.474;2024-01-30T08:35:29;95527.75;;;12.66;46.79
75219;BME280;63801;49.414;19.474;2024-01-30T08:37:31;95535.25;;;13.12;47.22
75219;BME280;63801;49.414;19.474;2024-01-30T08:39:32;95528.50;;;13.52;46.66
75219;BME280;63801;49.414;19.474;2024-01-30T08:41:32;95527.97;;;13.76;46.15
75219;BME280;63801;49.414;19.474;2024-01-30T08:43:32;95533.06;;;14.15;45.51
75219;BME280;63801;49.414;19.474;2024-01-30T08:45:32;95521.53;;;14.48;44.71
75219;BME280;63801;49.414;19.474;2024-01-30T08:47:33;95529.19;;;14.75;44.20
75219;BME280;63801;49.414;19.474;2024-01-30T08:49:33;95521.50;;;14.98;44.12
75219;BME280;63801;49.414;19.474;2024-01-30T08:51:33;95523.53;;;15.21;43.55
75219;BME280;63801;49.414;19.474;2024-01-30T08:53:35;95520.97;;;15.37;43.11
75219;BME280;63801;49.414;19.474;2024-01-30T08:55:35;95530.50;;;15.64;42.89
75219;BME280;63801;49.414;19.474;2024-01-30T08:57:36;95540.16;;;15.86;42.00
75219;BME280;63801;49.414;19.474;2024-01-30T08:59:36;95527.50;;;16.14;41.33
75219;BME280;63801;49.414;19.474;2024-01-30T09:01:36;95528.41;;;16.42;40.34
75219;BME280;63801;49.414;19.474;2024-01-30T09:03:37;95536.44;;;16.51;39.63
75219;BME280;63801;49.414;19.474;2024-01-30T09:05:40;95530.69;;;16.65;39.84
75219;BME280;63801;49.414;19.474;2024-01-30T09:07:40;95527.47;;;16.87;39.17
75219;BME280;63801;49.414;19.474;2024-01-30T09:09:41;95533.19;;;17.10;39.31
75219;BME280;63801;49.414;19.474;2024-01-30T09:11:41;95533.34;;;17.29;38.39
75219;BME280;63801;49.414;19.474;2024-01-30T09:13:41;95530.81;;;17.36;37.63
75219;BME280;63801;49.414;19.474;2024-01-30T09:15:42;95535.44;;;17.20;36.27
75219;BME280;63801;49.414;19.474;2024-01-30T09:17:42;95536.81;;;16.49;33.04
75219;BME280;63801;49.414;19.474;2024-01-30T09:19:42;95534.19;;;16.04;33.99
75219;BME280;63801;49.414;19.474;2024-01-30T09:21:43;95528.06;;;15.50;33.89
75219;BME280;63801;49.414;19.474;2024-01-30T09:23:43;95531.13;;;14.95;33.49
75219;BME280;63801;49.414;19.474;2024-01-30T09:25:43;95527.00;;;14.10;32.91
75219;BME280;63801;49.414;19.474;2024-01-30T09:27:44;95516.72;;;13.48;33.99
75219;BME280;63801;49.414;19.474;2024-01-30T09:29:44;95522.66;;;13.24;34.05
75219;BME280;63801;49.414;19.474;2024-01-30T09:31:45;95528.88;;;12.90;34.18
75219;BME280;63801;49.414;19.474;2024-01-30T09:33:46;95527.75;;;12.66;34.63
75219;BME280;63801;49.414;19.474;2024-01-30T09:35:48;95526.94;;;12.48;35.07
75219;BME280;63801;49.414;19.474;2024-01-30T09:37:48;95535.50;;;12.33;34.97
75219;BME280;63801;49.414;19.474;2024-01-30T09:39:48;95531.56;;;11.99;35.20
75219;BME280;63801;49.414;19.474;2024-01-30T09:42:02;95531.38;;;11.87;35.62
75219;BME280;63801;49.414;19.474;2024-01-30T09:44:05;95533.88;;;11.75;35.79
75219;BME280;63801;49.414;19.474;2024-01-30T09:46:10;95522.16;;;11.57;35.89
75219;BME280;63801;49.414;19.474;2024-01-30T09:48:12;95528.00;;;11.51;35.83
75219;BME280;63801;49.414;19.474;2024-01-30T09:50:14;95522.75;;;11.46;36.14
75219;BME280;63801;49.414;19.474;2024-01-30T09:52:15;95506.22;;;11.47;35.87
75219;BME280;63801;49.414;19.474;2024-01-30T09:54:15;95521.06;;;11.27;35.56
75219;BME280;63801;49.414;19.474;2024-01-30T09:56:16;95510.09;;;11.24;36.00
75219;BME280;63801;49.414;19.474;2024-01-30T09:58:16;95490.91;;;11.34;35.94
75219;BME280;63801;49.414;19.474;2024-01-30T10:00:17;95510.34;;;11.45;36.09
75219;BME280;63801;49.414;19.474;2024-01-30T10:02:18;95485.16;;;11.58;35.95
75219;BME280;63801;49.414;19.474;2024-01-30T10:04:19;95503.56;;;11.56;35.86
75219;BME280;63801;49.414;19.474;2024-01-30T10:06:19;95492.56;;;11.44;35.68
75219;BME280;63801;49.414;19.474;2024-01-30T10:08:21;95486.44;;;11.30;35.98
75219;BME280;63801;49.414;19.474;2024-01-30T10:10:22;95492.16;;;11.28;36.54
75219;BME280;63801;49.414;19.474;2024-01-30T10:12:26;95481.31;;;11.19;36.37
75219;BME280;63801;49.414;19.474;2024-01-30T10:14:26;95483.94;;;11.11;36.16
75219;BME280;63801;49.414;19.474;2024-01-30T10:16:26;95469.69;;;10.88;36.31
75219;BME280;63801;49.414;19.474;2024-01-30T10:18:27;95460.69;;;10.70;36.45
75219;BME280;63801;49.414;19.474;2024-01-30T10:20:27;95476.94;;;10.57;37.46
75219;BME280;63801;49.414;19.474;2024-01-30T10:22:28;95468.56;;;10.45;37.82
75219;BME280;63801;49.414;19.474;2024-01-30T10:24:28;95444.13;;;10.41;37.94
75219;BME280;63801;49.414;19.474;2024-01-30T10:26:31;95471.88;;;10.42;37.84
75219;BME280;63801;49.414;19.474;2024-01-30T10:28:34;95454.34;;;10.30;38.22
75219;BME280;63801;49.414;19.474;2024-01-30T10:30:34;95459.63;;;10.35;38.59